sensor_id;sensor_type;location;lat;lon;timestamp;temperature;humidity
1083;DHT22;530;51.448;7.238;2023-05-17T00:01:25;11.60;99.90
1083;DHT22;530;51.448;7.238;2023-05-17T00:03:51;11.60;99.90
1083;DHT22;530;51.448;7.238;2023-05-17T00:06:19;11.50;99.90
1083;DHT22;530;51.448;7.238;2023-05-17T00:08:45;11.60;99.90
1083;DHT22;530;51.448;7.238;2023-05-17T00:11:10;11.60;99.90
1083;DHT22;530;51.448;7.238;2023-05-17T00:13:36;11.50;99.90
1083;DHT22;530;51.448;7.238;2023-05-17T00:16:03;11.50;99.90
1083;DHT22;530;51.448;7.238;2023-05-17T00:18:29;11.40;99.90
1083;DHT22;530;51.448;7.238;2023-05-17T00:20:54;11.40;99.90
1083;DHT22;530;51.448;7.238;2023-05-17T00:23:20;11.40;99.90
1083;DHT22;530;51.448;7.238;2023-05-17T00:25:46;11.30;99.90
1083;DHT22;530;51.448;7.238;2023-05-17T00:28:11;11.30;99.90
1083;DHT22;530;51.448;7.238;2023-05-17T00:30:37;11.30;99.90
1083;DHT22;530;51.448;7.238;2023-05-17T00:33:03;11.30;99.90
1083;DHT22;530;51.448;7.238;2023-05-17T00:35:29;11.30;99.90
1083;DHT22;530;51.448;7.238;2023-05-17T00:37:55;11.30;99.90
1083;DHT22;530;51.448;7.238;2023-05-17T00:40:20;11.20;99.90
1083;DHT22;530;51.448;7.238;2023-05-17T00:42:46;11.30;99.90
1083;DHT22;530;51.448;7.238;2023-05-17T00:45:12;11.20;99.90
1083;DHT22;530;51.448;7.238;2023-05-17T00:47:38;11.20;99.90
1083;DHT22;530;51.448;7.238;2023-05-17T00:50:04;11.20;99.90
1083;DHT22;530;51.448;7.238;2023-05-17T00:52:31;11.20;99.90
1083;DHT22;530;51.448;7.238;2023-05-17T00:54:56;11.20;99.90
1083;DHT22;530;51.448;7.238;2023-05-17T00:57:22;11.20;99.90
1083;DHT22;530;51.448;7.238;2023-05-17T00:59:48;11.20;99.90
1083;DHT22;530;51.448;7.238;2023-05-17T01:02:15;11.10;99.90
1083;DHT22;530;51.448;7.238;2023-05-17T01:04:42;11.10;99.90
1083;DHT22;530;51.448;7.238;2023-05-17T01:07:09;11.10;99.90
1083;DHT22;530;51.448;7.238;2023-05-17T01:09:36;11.10;99.90
1083;DHT22;530;51.448;7.238;2023-05-17T01:12:18;11.10;99.90
1083;DHT22;530;51.448;7.238;2023-05-17T01:17:57;10.90;99.90
1083;DHT22;530;51.448;7.238;2023-05-17T01:23:22;10.80;99.90
1083;DHT22;530;51.448;7.238;2023-05-17T01:28:36;10.70;99.90
1083;DHT22;530;51.448;7.238;2023-05-17T01:31:03;10.70;99.90
1083;DHT22;530;51.448;7.238;2023-05-17T01:33:28;10.70;99.90
1083;DHT22;530;51.448;7.238;2023-05-17T01:35:54;10.80;99.90
1083;DHT22;530;51.448;7.238;2023-05-17T01:38:20;10.80;99.90
1083;DHT22;530;51.448;7.238;2023-05-17T01:41:00;10.80;99.90
1083;DHT22;530;51.448;7.238;2023-05-17T01:43:41;10.70;99.90
1083;DHT22;530;51.448;7.238;2023-05-17T01:46:33;10.70;99.90
1083;DHT22;530;51.448;7.238;2023-05-17T01:49:28;10.70;99.90
1083;DHT22;530;51.448;7.238;2023-05-17T01:52:02;10.60;99.90
1083;DHT22;530;51.448;7.238;2023-05-17T01:54:47;10.60;99.90
1083;DHT22;530;51.448;7.238;2023-05-17T01:57:18;10.60;99.90
1083;DHT22;530;51.448;7.238;2023-05-17T01:59:46;10.70;99.90
1083;DHT22;530;51.448;7.238;2023-05-17T02:02:12;10.70;99.90
1083;DHT22;530;51.448;7.238;2023-05-17T02:04:38;10.70;99.90
1083;DHT22;530;51.448;7.238;2023-05-17T02:07:04;10.70;99.90
1083;DHT22;530;51.448;7.238;2023-05-17T02:09:30;10.70;99.90
1083;DHT22;530;51.448;7.238;2023-05-17T02:11:56;10.70;99.90
1083;DHT22;530;51.448;7.238;2023-05-17T02:14:22;10.70;99.90
1083;DHT22;530;51.448;7.238;2023-05-17T02:16:47;10.60;99.90
1083;DHT22;530;51.448;7.238;2023-05-17T02:19:13;10.60;99.90
1083;DHT22;530;51.448;7.238;2023-05-17T02:21:39;10.60;99.90
1083;DHT22;530;51.448;7.238;2023-05-17T02:24:05;10.60;99.90
1083;DHT22;530;51.448;7.238;2023-05-17T02:26:31;10.60;99.90
1083;DHT22;530;51.448;7.238;2023-05-17T02:28:57;10.50;99.90
1083;DHT22;530;51.448;7.238;2023-05-17T02:31:23;10.50;99.90
1083;DHT22;530;51.448;7.238;2023-05-17T02:33:52;10.50;99.90
1083;DHT22;530;51.448;7.238;2023-05-17T02:36:18;10.50;99.90
1083;DHT22;530;51.448;7.238;2023-05-17T02:38:44;10.40;99.90
1083;DHT22;530;51.448;7.238;2023-05-17T02:41:10;10.40;99.90
1083;DHT22;530;51.448;7.238;2023-05-17T02:43:35;10.40;99.90
1083;DHT22;530;51.448;7.238;2023-05-17T02:46:01;10.40;99.90
1083;DHT22;530;51.448;7.238;2023-05-17T02:48:27;10.40;99.90
1083;DHT22;530;51.448;7.238;2023-05-17T02:50:52;10.40;99.90
1083;DHT22;530;51.448;7.238;2023-05-17T02:53:18;10.30;99.90
1083;DHT22;530;51.448;7.238;2023-05-17T02:55:44;10.30;99.90
1083;DHT22;530;51.448;7.238;2023-05-17T02:58:09;10.30;99.90
1083;DHT22;530;51.448;7.238;2023-05-17T03:00:35;10.30;99.90
1083;DHT22;530;51.448;7.238;2023-05-17T03:03:01;10.30;99.90
1083;DHT22;530;51.448;7.238;2023-05-17T03:05:27;10.30;99.90
1083;DHT22;530;51.448;7.238;2023-05-17T03:07:52;10.40;99.90
1083;DHT22;530;51.448;7.238;2023-05-17T03:10:18;10.40;99.90
1083;DHT22;530;51.448;7.238;2023-05-17T03:12:44;10.40;99.90
1083;DHT22;530;51.448;7.238;2023-05-17T03:15:10;10.50;99.90
1083;DHT22;530;51.448;7.238;2023-05-17T03:17:36;10.40;99.90
1083;DHT22;530;51.448;7.238;2023-05-17T03:20:01;10.50;99.90
1083;DHT22;530;51.448;7.238;2023-05-17T03:22:27;10.50;99.90
1083;DHT22;530;51.448;7.238;2023-05-17T03:24:53;10.50;99.90
1083;DHT22;530;51.448;7.238;2023-05-17T03:27:18;10.40;99.90
1083;DHT22;530;51.448;7.238;2023-05-17T03:29:44;10.40;99.90
1083;DHT22;530;51.448;7.238;2023-05-17T03:32:10;10.50;99.90
1083;DHT22;530;51.448;7.238;2023-05-17T03:34:35;10.50;99.90
1083;DHT22;530;51.448;7.238;2023-05-17T03:37:01;10.50;99.90
1083;DHT22;530;51.448;7.238;2023-05-17T03:39:27;10.50;99.90
1083;DHT22;530;51.448;7.238;2023-05-17T03:41:53;10.50;99.90
1083;DHT22;530;51.448;7.238;2023-05-17T03:44:19;10.50;99.90
1083;DHT22;530;51.448;7.238;2023-05-17T03:46:45;10.50;99.90
1083;DHT22;530;51.448;7.238;2023-05-17T03:49:10;10.50;99.90
1083;DHT22;530;51.448;7.238;2023-05-17T03:51:36;10.50;99.90
1083;DHT22;530;51.448;7.238;2023-05-17T03:54:02;10.60;99.90
1083;DHT22;530;51.448;7.238;2023-05-17T03:56:27;10.50;99.90
1083;DHT22;530;51.448;7.238;2023-05-17T03:58:53;10.60;99.90
1083;DHT22;530;51.448;7.238;2023-05-17T04:01:19;10.60;99.90
1083;DHT22;530;51.448;7.238;2023-05-17T04:03:45;10.60;99.90
1083;DHT22;530;51.448;7.238;2023-05-17T04:06:12;10.60;99.90
1083;DHT22;530;51.448;7.238;2023-05-17T04:08:39;10.60;99.90
1083;DHT22;530;51.448;7.238;2023-05-17T04:11:04;10.60;99.90
1083;DHT22;530;51.448;7.238;2023-05-17T04:13:41;10.70;99.90
1083;DHT22;530;51.448;7.238;2023-05-17T04:16:08;10.60;99.90
1083;DHT22;530;51.448;7.238;2023-05-17T04:18:37;10.70;99.90
1083;DHT22;530;51.448;7.238;2023-05-17T04:21:04;10.70;99.90
1083;DHT22;530;51.448;7.238;2023-05-17T04:23:33;10.70;99.90
1083;DHT22;530;51.448;7.238;2023-05-17T04:25:59;10.70;99.90
1083;DHT22;530;51.448;7.238;2023-05-17T04:28:25;10.70;99.90
1083;DHT22;530;51.448;7.238;2023-05-17T04:30:51;10.70;99.90
1083;DHT22;530;51.448;7.238;2023-05-17T04:33:17;10.70;99.90
1083;DHT22;530;51.448;7.238;2023-05-17T04:35:43;10.70;99.90
1083;DHT22;530;51.448;7.238;2023-05-17T04:38:09;10.80;99.90
1083;DHT22;530;51.448;7.238;2023-05-17T04:40:36;10.80;99.90
1083;DHT22;530;51.448;7.238;2023-05-17T04:43:01;10.80;99.90
1083;DHT22;530;51.448;7.238;2023-05-17T04:45:27;10.80;99.90
1083;DHT22;530;51.448;7.238;2023-05-17T04:47:53;10.80;99.90
1083;DHT22;530;51.448;7.238;2023-05-17T04:50:18;10.90;99.90
1083;DHT22;530;51.448;7.238;2023-05-17T04:52:46;10.90;99.90
1083;DHT22;530;51.448;7.238;2023-05-17T04:55:12;10.90;99.90
1083;DHT22;530;51.448;7.238;2023-05-17T04:57:38;11.00;99.90
1083;DHT22;530;51.448;7.238;2023-05-17T05:00:04;11.00;99.90
1083;DHT22;530;51.448;7.238;2023-05-17T05:02:34;11.00;99.90
1083;DHT22;530;51.448;7.238;2023-05-17T05:05:00;11.00;99.90
1083;DHT22;530;51.448;7.238;2023-05-17T05:07:26;11.00;99.90
1083;DHT22;530;51.448;7.238;2023-05-17T05:09:52;11.00;99.90
1083;DHT22;530;51.448;7.238;2023-05-17T05:12:17;11.10;99.90
1083;DHT22;530;51.448;7.238;2023-05-17T05:14:43;11.10;99.90
1083;DHT22;530;51.448;7.238;2023-05-17T05:17:09;11.10;99.90
1083;DHT22;530;51.448;7.238;2023-05-17T05:19:35;11.10;99.90
1083;DHT22;530;51.448;7.238;2023-05-17T05:22:00;11.20;99.90
1083;DHT22;530;51.448;7.238;2023-05-17T05:24:26;11.20;99.90
1083;DHT22;530;51.448;7.238;2023-05-17T05:26:52;11.20;99.90
1083;DHT22;530;51.448;7.238;2023-05-17T05:29:18;11.30;99.90
1083;DHT22;530;51.448;7.238;2023-05-17T05:31:44;11.30;99.90
1083;DHT22;530;51.448;7.238;2023-05-17T05:34:09;11.30;99.90
1083;DHT22;530;51.448;7.238;2023-05-17T05:36:35;11.30;99.90
1083;DHT22;530;51.448;7.238;2023-05-17T05:39:01;11.30;99.90
1083;DHT22;530;51.448;7.238;2023-05-17T05:41:27;11.40;99.90
1083;DHT22;530;51.448;7.238;2023-05-17T05:43:52;11.40;99.90
1083;DHT22;530;51.448;7.238;2023-05-17T05:46:18;11.50;99.90
1083;DHT22;530;51.448;7.238;2023-05-17T05:48:44;11.60;99.90
1083;DHT22;530;51.448;7.238;2023-05-17T05:51:09;11.60;99.90
1083;DHT22;530;51.448;7.238;2023-05-17T05:53:35;11.70;99.90
1083;DHT22;530;51.448;7.238;2023-05-17T05:56:02;11.80;99.90
1083;DHT22;530;51.448;7.238;2023-05-17T05:58:28;11.90;99.90
1083;DHT22;530;51.448;7.238;2023-05-17T06:00:54;12.00;99.90
1083;DHT22;530;51.448;7.238;2023-05-17T06:03:22;12.10;99.90
1083;DHT22;530;51.448;7.238;2023-05-17T06:05:47;12.20;99.90
1083;DHT22;530;51.448;7.238;2023-05-17T06:08:13;12.30;99.90
1083;DHT22;530;51.448;7.238;2023-05-17T06:10:39;12.40;99.90
1083;DHT22;530;51.448;7.238;2023-05-17T06:13:04;12.50;99.90
1083;DHT22;530;51.448;7.238;2023-05-17T06:15:30;12.60;99.90
1083;DHT22;530;51.448;7.238;2023-05-17T06:17:57;12.70;99.90
1083;DHT22;530;51.448;7.238;2023-05-17T06:20:23;12.80;99.90
1083;DHT22;530;51.448;7.238;2023-05-17T06:22:49;12.80;99.90
1083;DHT22;530;51.448;7.238;2023-05-17T06:25:15;12.80;99.90
1083;DHT22;530;51.448;7.238;2023-05-17T06:27:41;12.90;99.90
1083;DHT22;530;51.448;7.238;2023-05-17T06:30:07;12.90;99.90
1083;DHT22;530;51.448;7.238;2023-05-17T06:32:33;12.90;99.90
1083;DHT22;530;51.448;7.238;2023-05-17T06:34:59;12.90;99.90
1083;DHT22;530;51.448;7.238;2023-05-17T06:37:25;12.90;99.90
1083;DHT22;530;51.448;7.238;2023-05-17T06:39:51;12.90;99.90
1083;DHT22;530;51.448;7.238;2023-05-17T06:42:16;12.90;99.90
1083;DHT22;530;51.448;7.238;2023-05-17T06:44:43;12.80;99.90
1083;DHT22;530;51.448;7.238;2023-05-17T06:47:09;12.80;99.90
1083;DHT22;530;51.448;7.238;2023-05-17T06:49:35;12.70;99.90
1083;DHT22;530;51.448;7.238;2023-05-17T06:52:01;12.70;99.90
1083;DHT22;530;51.448;7.238;2023-05-17T06:54:30;12.80;99.90
1083;DHT22;530;51.448;7.238;2023-05-17T06:57:03;12.60;99.90
1083;DHT22;530;51.448;7.238;2023-05-17T06:59:28;12.60;99.90
1083;DHT22;530;51.448;7.238;2023-05-17T07:01:54;12.60;99.90
1083;DHT22;530;51.448;7.238;2023-05-17T07:04:20;12.60;99.90
1083;DHT22;530;51.448;7.238;2023-05-17T07:06:46;12.70;99.90
1083;DHT22;530;51.448;7.238;2023-05-17T07:09:12;12.70;99.90
1083;DHT22;530;51.448;7.238;2023-05-17T07:11:38;12.80;99.90
1083;DHT22;530;51.448;7.238;2023-05-17T07:14:04;12.90;99.90
1083;DHT22;530;51.448;7.238;2023-05-17T07:16:30;13.00;99.90
1083;DHT22;530;51.448;7.238;2023-05-17T07:18:55;13.10;99.90
1083;DHT22;530;51.448;7.238;2023-05-17T07:21:22;13.20;99.90
1083;DHT22;530;51.448;7.238;2023-05-17T07:23:49;13.30;99.90
1083;DHT22;530;51.448;7.238;2023-05-17T07:26:17;13.30;99.90
1083;DHT22;530;51.448;7.238;2023-05-17T07:28:43;13.10;99.90
1083;DHT22;530;51.448;7.238;2023-05-17T07:31:09;13.10;99.90
1083;DHT22;530;51.448;7.238;2023-05-17T07:33:36;13.10;99.90
1083;DHT22;530;51.448;7.238;2023-05-17T07:36:01;13.10;99.90
1083;DHT22;530;51.448;7.238;2023-05-17T07:38:27;13.20;99.90
1083;DHT22;530;51.448;7.238;2023-05-17T07:40:53;13.20;99.90
1083;DHT22;530;51.448;7.238;2023-05-17T07:43:18;13.30;99.90
1083;DHT22;530;51.448;7.238;2023-05-17T07:45:44;13.30;99.90
1083;DHT22;530;51.448;7.238;2023-05-17T07:48:10;13.30;99.90
1083;DHT22;530;51.448;7.238;2023-05-17T07:50:35;13.30;99.90
1083;DHT22;530;51.448;7.238;2023-05-17T07:53:01;13.30;99.90
1083;DHT22;530;51.448;7.238;2023-05-17T07:55:27;13.20;99.90
1083;DHT22;530;51.448;7.238;2023-05-17T07:57:52;13.20;99.90
1083;DHT22;530;51.448;7.238;2023-05-17T08:00:18;13.10;99.90
1083;DHT22;530;51.448;7.238;2023-05-17T08:02:44;13.00;99.90
1083;DHT22;530;51.448;7.238;2023-05-17T08:05:10;13.00;99.90
1083;DHT22;530;51.448;7.238;2023-05-17T08:07:36;13.00;99.90
1083;DHT22;530;51.448;7.238;2023-05-17T08:10:02;13.10;99.90
1083;DHT22;530;51.448;7.238;2023-05-17T08:12:28;13.10;99.90
1083;DHT22;530;51.448;7.238;2023-05-17T08:14:53;13.10;99.90
1083;DHT22;530;51.448;7.238;2023-05-17T08:17:19;13.20;99.90
1083;DHT22;530;51.448;7.238;2023-05-17T08:19:46;13.30;99.90
1083;DHT22;530;51.448;7.238;2023-05-17T08:22:12;13.30;99.90
1083;DHT22;530;51.448;7.238;2023-05-17T08:24:38;13.30;99.90
1083;DHT22;530;51.448;7.238;2023-05-17T08:27:04;13.30;99.90
1083;DHT22;530;51.448;7.238;2023-05-17T08:29:29;13.30;99.90
1083;DHT22;530;51.448;7.238;2023-05-17T08:31:56;13.30;99.90
1083;DHT22;530;51.448;7.238;2023-05-17T08:34:23;13.30;99.70
1083;DHT22;530;51.448;7.238;2023-05-17T08:36:49;13.40;99.90
1083;DHT22;530;51.448;7.238;2023-05-17T08:39:15;13.50;99.90
1083;DHT22;530;51.448;7.238;2023-05-17T08:41:40;13.50;99.20
1083;DHT22;530;51.448;7.238;2023-05-17T08:44:06;13.50;99.90
1083;DHT22;530;51.448;7.238;2023-05-17T08:46:34;13.50;99.90
1083;DHT22;530;51.448;7.238;2023-05-17T08:49:02;13.60;99.90
1083;DHT22;530;51.448;7.238;2023-05-17T08:51:28;13.70;99.30
1083;DHT22;530;51.448;7.238;2023-05-17T08:53:55;13.70;98.40
1083;DHT22;530;51.448;7.238;2023-05-17T08:56:22;13.70;97.80
1083;DHT22;530;51.448;7.238;2023-05-17T08:58:52;13.70;97.70
1083;DHT22;530;51.448;7.238;2023-05-17T09:01:20;13.80;97.80
1083;DHT22;530;51.448;7.238;2023-05-17T09:03:47;13.90;98.10
1083;DHT22;530;51.448;7.238;2023-05-17T09:06:24;14.00;97.40
1083;DHT22;530;51.448;7.238;2023-05-17T09:08:53;13.90;96.90
1083;DHT22;530;51.448;7.238;2023-05-17T09:11:29;13.90;98.40
1083;DHT22;530;51.448;7.238;2023-05-17T09:13:59;14.00;98.90
1083;DHT22;530;51.448;7.238;2023-05-17T09:16:30;14.00;99.40
1083;DHT22;530;51.448;7.238;2023-05-17T09:18:57;14.00;98.30
1083;DHT22;530;51.448;7.238;2023-05-17T09:21:23;14.10;99.00
1083;DHT22;530;51.448;7.238;2023-05-17T09:23:53;14.20;97.90
1083;DHT22;530;51.448;7.238;2023-05-17T09:26:19;14.30;97.40
1083;DHT22;530;51.448;7.238;2023-05-17T09:28:46;14.50;98.30
1083;DHT22;530;51.448;7.238;2023-05-17T09:31:16;14.70;98.40
1083;DHT22;530;51.448;7.238;2023-05-17T09:33:48;14.90;97.90
1083;DHT22;530;51.448;7.238;2023-05-17T09:36:19;15.00;96.20
1083;DHT22;530;51.448;7.238;2023-05-17T09:38:59;15.10;97.60
1083;DHT22;530;51.448;7.238;2023-05-17T09:41:26;15.20;96.90
1083;DHT22;530;51.448;7.238;2023-05-17T09:43:52;15.20;96.30
1083;DHT22;530;51.448;7.238;2023-05-17T09:46:21;15.10;94.20
1083;DHT22;530;51.448;7.238;2023-05-17T09:48:53;15.00;95.30
1083;DHT22;530;51.448;7.238;2023-05-17T09:51:19;14.90;96.20
1083;DHT22;530;51.448;7.238;2023-05-17T09:53:44;14.90;96.00
1083;DHT22;530;51.448;7.238;2023-05-17T09:56:10;14.90;96.10
1083;DHT22;530;51.448;7.238;2023-05-17T09:58:36;15.00;97.30
1083;DHT22;530;51.448;7.238;2023-05-17T10:01:06;15.00;97.50
1083;DHT22;530;51.448;7.238;2023-05-17T10:03:35;15.00;97.70
1083;DHT22;530;51.448;7.238;2023-05-17T10:06:02;15.00;97.70
1083;DHT22;530;51.448;7.238;2023-05-17T10:08:30;14.90;96.20
1083;DHT22;530;51.448;7.238;2023-05-17T10:11:25;14.90;96.20
1083;DHT22;530;51.448;7.238;2023-05-17T10:16:36;15.20;96.40
1083;DHT22;530;51.448;7.238;2023-05-17T10:19:03;15.40;96.80
1083;DHT22;530;51.448;7.238;2023-05-17T10:21:30;15.40;95.90
1083;DHT22;530;51.448;7.238;2023-05-17T10:23:58;15.40;96.20
1083;DHT22;530;51.448;7.238;2023-05-17T10:26:25;15.20;95.30
1083;DHT22;530;51.448;7.238;2023-05-17T10:28:56;15.00;93.30
1083;DHT22;530;51.448;7.238;2023-05-17T10:31:30;15.00;94.70
1083;DHT22;530;51.448;7.238;2023-05-17T10:33:59;15.10;95.30
1083;DHT22;530;51.448;7.238;2023-05-17T10:36:26;15.10;95.30
1083;DHT22;530;51.448;7.238;2023-05-17T10:38:52;15.10;96.20
1083;DHT22;530;51.448;7.238;2023-05-17T10:41:20;15.20;96.00
1083;DHT22;530;51.448;7.238;2023-05-17T10:43:47;15.20;96.80
1083;DHT22;530;51.448;7.238;2023-05-17T10:46:18;15.10;96.10
1083;DHT22;530;51.448;7.238;2023-05-17T10:48:51;15.10;95.90
1083;DHT22;530;51.448;7.238;2023-05-17T10:51:26;15.10;96.30
1083;DHT22;530;51.448;7.238;2023-05-17T10:54:06;15.20;96.80
1083;DHT22;530;51.448;7.238;2023-05-17T10:56:33;15.30;97.10
1083;DHT22;530;51.448;7.238;2023-05-17T10:59:19;15.40;96.70
1083;DHT22;530;51.448;7.238;2023-05-17T11:02:05;15.40;96.20
1083;DHT22;530;51.448;7.238;2023-05-17T11:04:38;15.60;96.60
1083;DHT22;530;51.448;7.238;2023-05-17T11:10:04;15.90;95.70
1083;DHT22;530;51.448;7.238;2023-05-17T11:12:41;15.80;93.80
1083;DHT22;530;51.448;7.238;2023-05-17T11:25:20;15.90;95.30
1083;DHT22;530;51.448;7.238;2023-05-17T11:27:49;16.00;94.20
1083;DHT22;530;51.448;7.238;2023-05-17T11:30:18;16.00;94.30
1083;DHT22;530;51.448;7.238;2023-05-17T11:32:50;16.00;94.40
1083;DHT22;530;51.448;7.238;2023-05-17T11:35:17;16.20;94.10
1083;DHT22;530;51.448;7.238;2023-05-17T11:37:43;16.20;93.90
1083;DHT22;530;51.448;7.238;2023-05-17T11:40:10;16.30;93.60
1083;DHT22;530;51.448;7.238;2023-05-17T11:42:38;16.30;93.90
1083;DHT22;530;51.448;7.238;2023-05-17T11:45:04;16.20;93.20
1083;DHT22;530;51.448;7.238;2023-05-17T11:47:30;16.20;93.30
1083;DHT22;530;51.448;7.238;2023-05-17T11:50:01;16.30;93.30
1083;DHT22;530;51.448;7.238;2023-05-17T11:52:28;16.40;92.40
1083;DHT22;530;51.448;7.238;2023-05-17T11:54:58;16.40;90.20
1083;DHT22;530;51.448;7.238;2023-05-17T11:57:31;16.50;91.70
1083;DHT22;530;51.448;7.238;2023-05-17T12:00:00;16.60;91.90
1083;DHT22;530;51.448;7.238;2023-05-17T12:02:28;16.70;92.20
1083;DHT22;530;51.448;7.238;2023-05-17T12:04:54;16.80;91.40
1083;DHT22;530;51.448;7.238;2023-05-17T12:07:20;16.90;90.40
1083;DHT22;530;51.448;7.238;2023-05-17T12:09:46;17.00;91.10
1083;DHT22;530;51.448;7.238;2023-05-17T12:12:12;16.90;88.90
1083;DHT22;530;51.448;7.238;2023-05-17T12:14:38;17.10;90.30
1083;DHT22;530;51.448;7.238;2023-05-17T12:17:07;17.00;88.90
1083;DHT22;530;51.448;7.238;2023-05-17T12:19:34;17.00;88.40
1083;DHT22;530;51.448;7.238;2023-05-17T12:22:10;17.00;90.00
1083;DHT22;530;51.448;7.238;2023-05-17T12:24:40;16.80;90.30
1083;DHT22;530;51.448;7.238;2023-05-17T12:27:07;16.80;91.00
1083;DHT22;530;51.448;7.238;2023-05-17T12:29:33;16.80;90.70
1083;DHT22;530;51.448;7.238;2023-05-17T12:31:59;16.70;90.50
1083;DHT22;530;51.448;7.238;2023-05-17T12:34:29;16.80;90.70
1083;DHT22;530;51.448;7.238;2023-05-17T12:36:55;16.90;91.00
1083;DHT22;530;51.448;7.238;2023-05-17T12:39:22;16.90;88.10
1083;DHT22;530;51.448;7.238;2023-05-17T12:41:51;17.00;90.70
1083;DHT22;530;51.448;7.238;2023-05-17T12:44:19;17.10;90.90
1083;DHT22;530;51.448;7.238;2023-05-17T12:46:48;16.90;87.60
1083;DHT22;530;51.448;7.238;2023-05-17T12:49:21;16.70;87.10
1083;DHT22;530;51.448;7.238;2023-05-17T12:51:48;16.60;90.20
1083;DHT22;530;51.448;7.238;2023-05-17T12:56:49;16.60;88.00
1083;DHT22;530;51.448;7.238;2023-05-17T13:01:46;16.90;92.00
1083;DHT22;530;51.448;7.238;2023-05-17T13:04:14;17.00;91.40
1083;DHT22;530;51.448;7.238;2023-05-17T13:06:50;17.10;91.10
1083;DHT22;530;51.448;7.238;2023-05-17T13:09:18;17.10;89.60
1083;DHT22;530;51.448;7.238;2023-05-17T13:11:54;17.10;88.00
1083;DHT22;530;51.448;7.238;2023-05-17T13:14:44;16.90;86.00
1083;DHT22;530;51.448;7.238;2023-05-17T13:17:24;16.80;89.10
1083;DHT22;530;51.448;7.238;2023-05-17T13:19:51;16.80;89.40
1083;DHT22;530;51.448;7.238;2023-05-17T13:22:16;16.70;89.70
1083;DHT22;530;51.448;7.238;2023-05-17T13:24:43;16.80;90.90
1083;DHT22;530;51.448;7.238;2023-05-17T13:27:10;16.80;89.60
1083;DHT22;530;51.448;7.238;2023-05-17T13:29:38;16.70;86.70
1083;DHT22;530;51.448;7.238;2023-05-17T13:32:05;16.60;87.70
1083;DHT22;530;51.448;7.238;2023-05-17T13:34:31;16.70;90.60
1083;DHT22;530;51.448;7.238;2023-05-17T13:36:56;16.80;89.30
1083;DHT22;530;51.448;7.238;2023-05-17T13:39:22;16.80;87.80
1083;DHT22;530;51.448;7.238;2023-05-17T13:41:48;16.80;88.10
1083;DHT22;530;51.448;7.238;2023-05-17T13:44:14;16.90;90.00
1083;DHT22;530;51.448;7.238;2023-05-17T13:46:39;16.90;88.30
1083;DHT22;530;51.448;7.238;2023-05-17T13:49:05;16.80;86.90
1083;DHT22;530;51.448;7.238;2023-05-17T13:51:35;16.80;87.60
1083;DHT22;530;51.448;7.238;2023-05-17T13:54:05;16.70;87.60
1083;DHT22;530;51.448;7.238;2023-05-17T13:56:32;16.70;87.10
1083;DHT22;530;51.448;7.238;2023-05-17T13:58:57;17.40;86.80
1083;DHT22;530;51.448;7.238;2023-05-17T14:01:24;19.10;85.70
1083;DHT22;530;51.448;7.238;2023-05-17T14:03:49;21.50;77.70
1083;DHT22;530;51.448;7.238;2023-05-17T14:06:16;22.00;70.80
1083;DHT22;530;51.448;7.238;2023-05-17T14:08:42;21.30;67.70
1083;DHT22;530;51.448;7.238;2023-05-17T14:11:09;20.20;66.70
1083;DHT22;530;51.448;7.238;2023-05-17T14:13:34;19.30;66.30
1083;DHT22;530;51.448;7.238;2023-05-17T14:16:00;18.50;69.10
1083;DHT22;530;51.448;7.238;2023-05-17T14:18:25;17.90;71.40
1083;DHT22;530;51.448;7.238;2023-05-17T14:20:51;17.50;72.90
1083;DHT22;530;51.448;7.238;2023-05-17T14:23:18;17.20;75.30
1083;DHT22;530;51.448;7.238;2023-05-17T14:25:43;17.00;76.20
1083;DHT22;530;51.448;7.238;2023-05-17T14:28:09;16.90;81.10
1083;DHT22;530;51.448;7.238;2023-05-17T14:30:36;16.70;81.10
1083;DHT22;530;51.448;7.238;2023-05-17T14:33:02;16.70;79.40
1083;DHT22;530;51.448;7.238;2023-05-17T14:35:28;16.70;81.60
1083;DHT22;530;51.448;7.238;2023-05-17T14:37:55;16.70;81.50
1083;DHT22;530;51.448;7.238;2023-05-17T14:40:21;16.60;80.80
1083;DHT22;530;51.448;7.238;2023-05-17T14:42:46;16.50;81.70
1083;DHT22;530;51.448;7.238;2023-05-17T14:45:13;16.40;83.10
1083;DHT22;530;51.448;7.238;2023-05-17T14:47:39;16.30;82.30
1083;DHT22;530;51.448;7.238;2023-05-17T14:50:05;16.20;82.90
1083;DHT22;530;51.448;7.238;2023-05-17T14:52:32;16.10;80.40
1083;DHT22;530;51.448;7.238;2023-05-17T14:54:57;16.00;81.50
1083;DHT22;530;51.448;7.238;2023-05-17T14:57:24;16.00;82.40
1083;DHT22;530;51.448;7.238;2023-05-17T14:59:49;16.00;82.10
1083;DHT22;530;51.448;7.238;2023-05-17T15:02:15;16.00;82.10
1083;DHT22;530;51.448;7.238;2023-05-17T15:04:41;16.00;85.10
1083;DHT22;530;51.448;7.238;2023-05-17T15:07:06;16.10;86.70
1083;DHT22;530;51.448;7.238;2023-05-17T15:09:40;16.20;86.90
1083;DHT22;530;51.448;7.238;2023-05-17T15:12:08;16.30;85.30
1083;DHT22;530;51.448;7.238;2023-05-17T15:14:34;16.30;86.00
1083;DHT22;530;51.448;7.238;2023-05-17T15:16:59;16.30;85.20
1083;DHT22;530;51.448;7.238;2023-05-17T15:19:26;16.30;85.40
1083;DHT22;530;51.448;7.238;2023-05-17T15:21:52;16.40;87.10
1083;DHT22;530;51.448;7.238;2023-05-17T15:24:18;16.40;85.90
1083;DHT22;530;51.448;7.238;2023-05-17T15:26:44;16.40;86.00
1083;DHT22;530;51.448;7.238;2023-05-17T15:29:09;16.50;86.20
1083;DHT22;530;51.448;7.238;2023-05-17T15:31:36;16.50;83.80
1083;DHT22;530;51.448;7.238;2023-05-17T15:34:01;16.50;85.50
1083;DHT22;530;51.448;7.238;2023-05-17T15:36:27;16.50;83.70
1083;DHT22;530;51.448;7.238;2023-05-17T15:38:53;16.40;84.60
1083;DHT22;530;51.448;7.238;2023-05-17T15:41:18;16.40;84.70
1083;DHT22;530;51.448;7.238;2023-05-17T15:43:46;16.30;84.10
1083;DHT22;530;51.448;7.238;2023-05-17T15:46:12;16.20;83.10
1083;DHT22;530;51.448;7.238;2023-05-17T15:48:38;16.20;83.40
1083;DHT22;530;51.448;7.238;2023-05-17T15:51:03;16.20;83.60
1083;DHT22;530;51.448;7.238;2023-05-17T15:53:29;16.10;84.40
1083;DHT22;530;51.448;7.238;2023-05-17T15:55:55;16.20;84.10
1083;DHT22;530;51.448;7.238;2023-05-17T15:58:22;16.20;85.70
1083;DHT22;530;51.448;7.238;2023-05-17T16:00:48;16.10;84.50
1083;DHT22;530;51.448;7.238;2023-05-17T16:03:15;16.00;84.90
1083;DHT22;530;51.448;7.238;2023-05-17T16:05:41;16.10;86.90
1083;DHT22;530;51.448;7.238;2023-05-17T16:08:08;16.10;85.10
1083;DHT22;530;51.448;7.238;2023-05-17T16:10:35;16.10;83.70
1083;DHT22;530;51.448;7.238;2023-05-17T16:13:01;16.10;86.80
1083;DHT22;530;51.448;7.238;2023-05-17T16:15:27;16.10;84.90
1083;DHT22;530;51.448;7.238;2023-05-17T16:17:53;16.10;84.10
1083;DHT22;530;51.448;7.238;2023-05-17T16:20:19;16.00;85.70
1083;DHT22;530;51.448;7.238;2023-05-17T16:22:47;16.10;86.00
1083;DHT22;530;51.448;7.238;2023-05-17T16:25:21;16.00;86.50
1083;DHT22;530;51.448;7.238;2023-05-17T16:27:48;16.00;85.10
1083;DHT22;530;51.448;7.238;2023-05-17T16:30:14;16.00;85.80
1083;DHT22;530;51.448;7.238;2023-05-17T16:32:41;16.00;86.20
1083;DHT22;530;51.448;7.238;2023-05-17T16:35:07;16.00;87.10
1083;DHT22;530;51.448;7.238;2023-05-17T16:37:33;16.00;87.00
1083;DHT22;530;51.448;7.238;2023-05-17T16:39:59;16.00;85.70
1083;DHT22;530;51.448;7.238;2023-05-17T16:42:25;16.00;86.80
1083;DHT22;530;51.448;7.238;2023-05-17T16:44:51;16.00;86.70
1083;DHT22;530;51.448;7.238;2023-05-17T16:47:17;16.00;85.30